Horizon II — 3FHB4 — position and weather

sailwx.info

Track history (hours):
 
Tides and Currents Weather Stations Pressure Air Temp Water Temp Dewpoint Dewpoint Depression Visibility Wind Speed Wind Dir Waves Ship Positions

Horizon II

Last reported at 2017-Dec-09 11:26 UTC. Time now 2017-Dec-13 03:40 UTC.
Position N 38°22' W 010°00'.

Length 255 m; draft 11.2 m.

Type: Cargo ship. MMSI: 357568000.

Date/timePositionNaut miles runAvg speedWind from/ knotsBaromVisibWave heightAir tempDewpointWater temp
2017-Dec-09 11:26N 38°22' W 010°00'612.5
2017-Dec-09 11:00N 38°27' W 010°02'612.5
2017-Dec-09 10:30N 38°33' W 010°04'612.1
2017-Dec-09 09:59N 38°39' W 010°06'612.1
2017-Dec-09 09:28N 38°45' W 010°06'612.6
2017-Dec-09 09:00N 38°51' W 010°06'613.0
2017-Dec-09 08:30N 38°58' W 010°06'612.9
2017-Dec-09 08:00N 39°04' W 010°06'712.8
2017-Dec-09 07:29N 39°11' W 010°06'912.4
2017-Dec-09 06:43N 39°20' W 010°06'  
2017-Dec-04 01:54N 57°23' E 008°09'410.3
2017-Dec-04 01:30N 57°25' E 008°16'510.4
2017-Dec-04 00:58N 57°27' E 008°25'510.7
2017-Dec-04 00:30N 57°29' E 008°34'610.8
2017-Dec-03 23:59N 57°32' E 008°43'510.8
2017-Dec-03 23:29N 57°34' E 008°52'510.8
2017-Dec-03 23:00N 57°36' E 009°01'610.9
2017-Dec-03 22:29N 57°38' E 009°11'611.1
2017-Dec-03 21:59N 57°41' E 009°20'511.3
2017-Dec-03 21:30N 57°43' E 009°30'611.3
2017-Dec-03 21:00N 57°45' E 009°39'511.2
2017-Dec-03 20:30N 57°47' E 009°49'611.1
2017-Dec-03 20:00N 57°48' E 009°59'610.8
2017-Dec-03 19:29N 57°48' E 010°10'510.7
2017-Dec-03 18:59N 57°48' E 010°20'510.7
2017-Dec-03 18:30N 57°48' E 010°29'510.4
2017-Dec-03 18:00N 57°49' E 010°39'5 9.6
2017-Dec-03 17:30N 57°48' E 010°48'4 7.0
2017-Dec-03 17:00N 57°46' E 010°53'510.1
2017-Dec-03 16:30N 57°42' E 010°58'611.9
2017-Dec-03 16:00N 57°38' E 011°06'612.6
2017-Dec-03 15:30N 57°33' E 011°14'612.4
2017-Dec-03 15:00N 57°29' E 011°23'612.1
2017-Dec-03 14:30N 57°24' E 011°28'612.6
2017-Dec-03 14:00N 57°18' E 011°32'612.9
2017-Dec-03 13:30N 57°12' E 011°36'713.4
2017-Dec-03 13:00N 57°05' E 011°41'10812.1
2017-Dec-03 04:03N 55°19' E 011°02'314.1
2017-Dec-03 03:49N 55°16' E 011°04'413.2
2017-Dec-03 03:30N 55°12' E 011°06'714.1
2017-Dec-03 03:00N 55°05' E 011°02'713.9
2017-Dec-03 02:31N 54°59' E 010°59'714.3
2017-Dec-03 02:01N 54°53' E 010°51'714.3
2017-Dec-03 01:31N 54°46' E 010°49'612.8
2017-Dec-03 01:01N 54°40' E 010°49'713.7
2017-Dec-03 00:31N 54°37' E 010°59'713.3
2017-Dec-03 00:00N 54°36' E 011°10'713.6
2017-Dec-02 23:31N 54°33' E 011°21'713.7
2017-Dec-02 23:01N 54°30' E 011°32'1913.0
2017-Dec-02 21:32N 54°27' E 012°04'012.9
2017-Dec-02 21:30N 54°27' E 012°05'510.9
2017-Dec-02 21:00N 54°30' E 012°13'611.5
2017-Dec-02 20:31N 54°35' E 012°17'  
Track history (hours):
 
Tides and Currents Weather Stations Pressure Air Temp Water Temp Dewpoint Dewpoint Depression Visibility Wind Speed Wind Dir Waves Ship Positions

Horizon II

Last reported at 2017-Dec-09 11:26 UTC. Time now 2017-Dec-13 03:40 UTC.
Position N 38°22' W 010°00'.

Length 255 m; draft 11.2 m.

Type: Cargo ship. MMSI: 357568000.

Date/timePositionNaut miles runAvg speedWind from/ knotsBaromVisibWave heightAir tempDewpointWater temp
2017-Dec-09 11:26N 38°22' W 010°00'612.5
2017-Dec-09 11:00N 38°27' W 010°02'612.5
2017-Dec-09 10:30N 38°33' W 010°04'612.1
2017-Dec-09 09:59N 38°39' W 010°06'612.1
2017-Dec-09 09:28N 38°45' W 010°06'612.6
2017-Dec-09 09:00N 38°51' W 010°06'613.0
2017-Dec-09 08:30N 38°58' W 010°06'612.9
2017-Dec-09 08:00N 39°04' W 010°06'712.8
2017-Dec-09 07:29N 39°11' W 010°06'912.4
2017-Dec-09 06:43N 39°20' W 010°06'  
2017-Dec-04 01:54N 57°23' E 008°09'410.3
2017-Dec-04 01:30N 57°25' E 008°16'510.4
2017-Dec-04 00:58N 57°27' E 008°25'510.7
2017-Dec-04 00:30N 57°29' E 008°34'610.8
2017-Dec-03 23:59N 57°32' E 008°43'510.8
2017-Dec-03 23:29N 57°34' E 008°52'510.8
2017-Dec-03 23:00N 57°36' E 009°01'610.9
2017-Dec-03 22:29N 57°38' E 009°11'611.1
2017-Dec-03 21:59N 57°41' E 009°20'511.3
2017-Dec-03 21:30N 57°43' E 009°30'611.3
2017-Dec-03 21:00N 57°45' E 009°39'511.2
2017-Dec-03 20:30N 57°47' E 009°49'611.1
2017-Dec-03 20:00N 57°48' E 009°59'610.8
2017-Dec-03 19:29N 57°48' E 010°10'510.7
2017-Dec-03 18:59N 57°48' E 010°20'510.7
2017-Dec-03 18:30N 57°48' E 010°29'510.4
2017-Dec-03 18:00N 57°49' E 010°39'5 9.6
2017-Dec-03 17:30N 57°48' E 010°48'4 7.0
2017-Dec-03 17:00N 57°46' E 010°53'510.1
2017-Dec-03 16:30N 57°42' E 010°58'611.9
2017-Dec-03 16:00N 57°38' E 011°06'612.6
2017-Dec-03 15:30N 57°33' E 011°14'612.4
2017-Dec-03 15:00N 57°29' E 011°23'612.1
2017-Dec-03 14:30N 57°24' E 011°28'612.6
2017-Dec-03 14:00N 57°18' E 011°32'612.9
2017-Dec-03 13:30N 57°12' E 011°36'713.4
2017-Dec-03 13:00N 57°05' E 011°41'10812.1
2017-Dec-03 04:03N 55°19' E 011°02'314.1
2017-Dec-03 03:49N 55°16' E 011°04'413.2
2017-Dec-03 03:30N 55°12' E 011°06'714.1
2017-Dec-03 03:00N 55°05' E 011°02'713.9
2017-Dec-03 02:31N 54°59' E 010°59'714.3
2017-Dec-03 02:01N 54°53' E 010°51'714.3
2017-Dec-03 01:31N 54°46' E 010°49'612.8
2017-Dec-03 01:01N 54°40' E 010°49'713.7
2017-Dec-03 00:31N 54°37' E 010°59'713.3
2017-Dec-03 00:00N 54°36' E 011°10'713.6
2017-Dec-02 23:31N 54°33' E 011°21'713.7
2017-Dec-02 23:01N 54°30' E 011°32'1913.0
2017-Dec-02 21:32N 54°27' E 012°04'012.9
2017-Dec-02 21:30N 54°27' E 012°05'510.9
2017-Dec-02 21:00N 54°30' E 012°13'611.5
2017-Dec-02 20:31N 54°35' E 012°17'  

Dump ship's entire track history